Time;durP1;ratioP1;P1;durP2;ratioP2;P2;SDS_P1;SDS_P2;PMS_P1;PMS_P2;Temp;Humidity;BMP_temperature;BMP_pressure;BME280_temperature;BME280_humidity;BME280_pressure;Samples;Min_cycle;Max_cycle;Signal;HPM_P1;HPM_P2
2023/10/06 00:00:40;;;;;;;;;;;19.30;69.50;;;;;;5112854;28;19920;-71
2023/10/06 00:03:06;;;;;;;;;;;19.30;69.50;;;;;;5094508;28;20406;-70
2023/10/06 00:05:32;;;;;;;;;;;19.20;69.40;;;;;;5094428;28;19924;-71
2023/10/06 00:07:58;;;;;;;;;;;19.30;69.50;;;;;;5112586;28;19927;-71
2023/10/06 00:10:27;;;;;;;;;;;19.20;69.40;;;;;;5094781;28;19920;-71
2023/10/06 00:13:00;;;;;;;;;;;19.20;69.50;;;;;;5112857;28;19965;-70
2023/10/06 00:15:28;;;;;;;;;;;19.20;69.50;;;;;;5094414;28;19924;-71
2023/10/06 00:18:00;;;;;;;;;;;19.20;69.50;;;;;;5112494;28;19959;-71
2023/10/06 00:20:38;;;;;;;;;;;19.20;69.50;;;;;;5112507;28;20404;-71
2023/10/06 00:23:06;;;;;;;;;;;19.20;69.50;;;;;;5094341;28;19924;-70
2023/10/06 00:25:35;;;;;;;;;;;19.20;69.50;;;;;;5095537;28;19924;-70
2023/10/06 00:28:03;;;;;;;;;;;19.20;69.50;;;;;;5116677;28;19961;-71
2023/10/06 00:30:28;;;;;;;;;;;19.20;69.50;;;;;;5098752;28;19919;-71
2023/10/06 00:32:55;;;;;;;;;;;19.20;69.50;;;;;;5098390;28;19926;-70
2023/10/06 00:35:30;;;;;;;;;;;19.20;69.60;;;;;;5098510;28;19943;-70
2023/10/06 00:38:04;;;;;;;;;;;19.20;69.60;;;;;;5098372;28;19931;-71
2023/10/06 00:40:29;;;;;;;;;;;19.20;69.50;;;;;;5098548;28;20371;-71
2023/10/06 00:42:56;;;;;;;;;;;19.20;69.50;;;;;;5098117;28;19973;-70
2023/10/06 00:45:24;;;;;;;;;;;19.20;69.50;;;;;;5098105;28;19924;-71
2023/10/06 00:47:53;;;;;;;;;;;19.20;69.50;;;;;;5097951;28;19969;-71
2023/10/06 00:50:22;;;;;;;;;;;19.20;69.50;;;;;;5098373;28;19920;-71
2023/10/06 00:52:48;;;;;;;;;;;19.10;69.50;;;;;;5098230;28;19941;-70
2023/10/06 00:55:14;;;;;;;;;;;19.20;69.60;;;;;;5132089;27;20378;-70
2023/10/06 00:57:40;;;;;;;;;;;19.20;69.60;;;;;;5098070;28;19928;-71
2023/10/06 01:00:16;;;;;;;;;;;19.20;69.50;;;;;;5116173;28;19937;-71
2023/10/06 01:02:43;;;;;;;;;;;19.10;69.50;;;;;;5097691;28;19924;-71
2023/10/06 01:05:09;;;;;;;;;;;19.10;69.50;;;;;;5115839;28;19930;-71
2023/10/06 01:07:36;;;;;;;;;;;19.10;69.50;;;;;;5131794;27;19920;-71
2023/10/06 01:10:14;;;;;;;;;;;19.10;69.50;;;;;;5097973;28;19920;-71
2023/10/06 01:12:39;;;;;;;;;;;19.10;69.50;;;;;;5097527;28;20378;-71
2023/10/06 01:15:15;;;;;;;;;;;19.10;69.50;;;;;;5131680;27;19970;-71
2023/10/06 01:17:41;;;;;;;;;;;19.10;69.50;;;;;;5097643;28;20393;-71
2023/10/06 01:20:09;;;;;;;;;;;19.10;69.50;;;;;;5115948;28;19919;-71
2023/10/06 01:22:41;;;;;;;;;;;19.10;69.50;;;;;;5097713;28;19920;-71
2023/10/06 01:25:13;;;;;;;;;;;19.10;69.50;;;;;;5097388;28;20337;-71
2023/10/06 01:27:38;;;;;;;;;;;19.10;69.50;;;;;;5097536;28;19920;-71
2023/10/06 01:30:17;;;;;;;;;;;19.10;69.50;;;;;;5097492;28;20019;-70
2023/10/06 01:32:44;;;;;;;;;;;19.10;69.50;;;;;;5097587;28;20010;-71
2023/10/06 01:35:13;;;;;;;;;;;19.10;69.60;;;;;;5097227;28;20014;-71
2023/10/06 01:37:39;;;;;;;;;;;19.10;69.50;;;;;;5115012;28;20406;-71
2023/10/06 01:40:15;;;;;;;;;;;19.00;69.50;;;;;;5097316;28;19919;-71
2023/10/06 01:42:40;;;;;;;;;;;19.00;69.50;;;;;;5097352;28;20439;-70
2023/10/06 01:45:15;;;;;;;;;;;19.10;69.50;;;;;;5096975;28;20014;-70
2023/10/06 01:47:40;;;;;;;;;;;19.00;69.50;;;;;;5096985;28;20275;-71
2023/10/06 01:50:06;;;;;;;;;;;19.00;69.50;;;;;;5097189;28;19939;-71
2023/10/06 01:52:32;;;;;;;;;;;19.00;69.40;;;;;;5115146;28;19920;-71
2023/10/06 01:54:58;;;;;;;;;;;19.00;69.40;;;;;;5096929;28;19942;-70
2023/10/06 01:57:24;;;;;;;;;;;19.00;69.40;;;;;;5097104;28;19931;-71
2023/10/06 01:59:50;;;;;;;;;;;19.00;69.50;;;;;;5096661;28;19920;-71
2023/10/06 02:02:18;;;;;;;;;;;19.00;69.40;;;;;;5096658;28;19931;-71
2023/10/06 02:04:45;;;;;;;;;;;19.00;69.40;;;;;;5096248;28;20363;-71
2023/10/06 02:07:10;;;;;;;;;;;19.00;69.50;;;;;;5114868;28;20010;-71
2023/10/06 02:09:37;;;;;;;;;;;19.00;69.50;;;;;;5114702;28;20011;-71
2023/10/06 02:12:03;;;;;;;;;;;19.00;69.50;;;;;;5096461;28;19927;-71
2023/10/06 02:14:29;;;;;;;;;;;19.00;69.50;;;;;;5114818;28;19920;-71
2023/10/06 02:16:55;;;;;;;;;;;19.00;69.50;;;;;;5096338;28;20276;-71
2023/10/06 02:19:21;;;;;;;;;;;18.90;69.40;;;;;;5096578;28;20383;-71
2023/10/06 02:21:49;;;;;;;;;;;19.00;69.50;;;;;;5114591;28;19926;-71
2023/10/06 02:24:16;;;;;;;;;;;19.00;69.50;;;;;;5114494;28;20366;-71
2023/10/06 02:26:43;;;;;;;;;;;18.90;69.40;;;;;;5096444;28;19923;-71
2023/10/06 02:29:15;;;;;;;;;;;18.90;69.40;;;;;;5096106;28;20130;-70
2023/10/06 02:31:41;;;;;;;;;;;19.00;69.40;;;;;;5096162;28;19920;-71
2023/10/06 02:34:12;;;;;;;;;;;18.90;69.40;;;;;;5096135;28;20028;-71
2023/10/06 02:36:38;;;;;;;;;;;18.90;69.40;;;;;;5096340;28;20267;-71
2023/10/06 02:39:06;;;;;;;;;;;19.00;69.40;;;;;;5114215;28;19926;-71
2023/10/06 02:41:32;;;;;;;;;;;18.90;69.30;;;;;;5096125;28;20282;-71
2023/10/06 02:44:08;;;;;;;;;;;18.90;69.30;;;;;;5114017;28;20328;-70
2023/10/06 02:46:36;;;;;;;;;;;18.90;69.30;;;;;;5095908;28;19965;-71
2023/10/06 02:49:07;;;;;;;;;;;18.90;69.30;;;;;;5095201;28;19920;-71
2023/10/06 02:51:32;;;;;;;;;;;18.90;69.30;;;;;;5095995;28;19920;-71
2023/10/06 02:56:55;;;;;;;;;;;18.90;69.30;;;;;;5110260;27;20364;-71
2023/10/06 02:59:21;;;;;;;;;;;18.90;69.30;;;;;;5108978;28;20022;-71
2023/10/06 03:01:51;;;;;;;;;;;19.10;69.40;;;;;;5109189;28;19920;-70
2023/10/06 03:04:17;;;;;;;;;;;19.40;68.90;;;;;;5108823;28;19924;-71
2023/10/06 03:06:52;;;;;;;;;;;19.70;67.90;;;;;;5108792;28;19928;-71
2023/10/06 03:09:18;;;;;;;;;;;20.10;66.80;;;;;;5109107;28;19919;-71
2023/10/06 03:11:49;;;;;;;;;;;20.70;65.50;;;;;;5108721;28;20298;-70
2023/10/06 03:14:15;;;;;;;;;;;21.40;63.60;;;;;;5110093;28;20390;-71
2023/10/06 03:16:42;;;;;;;;;;;22.10;61.70;;;;;;5108491;28;20375;-71
2023/10/06 03:19:12;;;;;;;;;;;22.70;60.00;;;;;;5108880;28;19978;-71
2023/10/06 03:21:43;;;;;;;;;;;23.20;58.50;;;;;;5108499;28;19923;-71
2023/10/06 03:24:15;;;;;;;;;;;23.70;57.30;;;;;;5109956;28;20007;-71
2023/10/06 03:26:44;;;;;;;;;;;24.10;56.20;;;;;;5110038;28;19927;-71
2023/10/06 03:29:24;;;;;;;;;;;24.50;55.20;;;;;;5108396;28;20027;-71
2023/10/06 03:31:50;;;;;;;;;;;24.70;54.80;;;;;;5108239;28;20383;-71
2023/10/06 03:34:16;;;;;;;;;;;24.70;54.50;;;;;;5109833;28;19931;-71
2023/10/06 03:36:51;;;;;;;;;;;24.70;54.40;;;;;;5108233;28;19924;-71
2023/10/06 03:39:22;;;;;;;;;;;24.60;54.60;;;;;;5109620;28;19930;-71
2023/10/06 03:41:52;;;;;;;;;;;24.40;54.90;;;;;;5108391;28;19974;-71
2023/10/06 03:44:25;;;;;;;;;;;24.20;55.20;;;;;;5109410;28;19920;-71
2023/10/06 03:46:51;;;;;;;;;;;24.00;55.50;;;;;;5108343;28;19920;-71
2023/10/06 03:49:18;;;;;;;;;;;23.80;56.00;;;;;;5109203;28;19926;-71
2023/10/06 03:51:44;;;;;;;;;;;23.60;56.50;;;;;;5108292;28;19920;-70
2023/10/06 03:54:10;;;;;;;;;;;23.30;56.90;;;;;;5109097;28;19928;-70
2023/10/06 03:56:35;;;;;;;;;;;23.20;57.40;;;;;;5107661;28;19930;-70
2023/10/06 03:59:01;;;;;;;;;;;23.00;57.90;;;;;;5107698;28;19934;-71
2023/10/06 04:01:26;;;;;;;;;;;22.70;58.30;;;;;;5108109;28;19920;-70
2023/10/06 04:03:53;;;;;;;;;;;22.60;58.70;;;;;;5107978;28;19920;-71
2023/10/06 04:06:23;;;;;;;;;;;22.40;59.10;;;;;;5104871;28;19924;-71
2023/10/06 04:08:48;;;;;;;;;;;22.20;59.50;;;;;;5094027;28;20002;-71
2023/10/06 04:11:15;;;;;;;;;;;22.10;59.90;;;;;;5094360;28;20057;-71
2023/10/06 04:13:41;;;;;;;;;;;21.90;60.20;;;;;;5094267;28;19924;-71
2023/10/06 04:16:07;;;;;;;;;;;21.80;60.60;;;;;;5093976;28;19931;-71
2023/10/06 04:18:32;;;;;;;;;;;21.70;60.90;;;;;;5093791;28;19990;-72
2023/10/06 04:20:58;;;;;;;;;;;21.50;61.10;;;;;;5094156;28;20029;-71
2023/10/06 04:23:24;;;;;;;;;;;21.40;61.40;;;;;;5094036;28;19920;-71
2023/10/06 04:25:54;;;;;;;;;;;21.30;61.70;;;;;;5093711;28;20013;-71
2023/10/06 04:28:22;;;;;;;;;;;21.20;61.90;;;;;;5094882;28;19926;-71
2023/10/06 04:30:48;;;;;;;;;;;21.20;62.10;;;;;;5093601;28;19920;-71
2023/10/06 04:33:14;;;;;;;;;;;21.10;62.30;;;;;;5093637;28;19920;-70
2023/10/06 04:35:42;;;;;;;;;;;21.20;63.10;;;;;;5093824;28;19924;-71
2023/10/06 04:38:10;;;;;;;;;;;21.20;62.20;;;;;;5094810;28;19927;-70
2023/10/06 04:40:36;;;;;;;;;;;21.30;62.10;;;;;;5094690;28;19920;-70
2023/10/06 04:43:03;;;;;;;;;;;21.30;61.80;;;;;;5093668;28;20346;-70
2023/10/06 04:45:31;;;;;;;;;;;21.40;61.60;;;;;;5093279;28;20299;-70
2023/10/06 04:48:02;;;;;;;;;;;21.50;61.40;;;;;;5093505;28;19920;-70
2023/10/06 04:50:29;;;;;;;;;;;21.60;61.20;;;;;;5093287;28;19927;-71
2023/10/06 04:52:55;;;;;;;;;;;21.60;60.90;;;;;;5093242;28;20078;-71
2023/10/06 04:55:20;;;;;;;;;;;21.60;60.70;;;;;;5101801;28;20076;-71
2023/10/06 04:57:47;;;;;;;;;;;21.70;60.70;;;;;;5096738;28;20076;-71
2023/10/06 05:00:14;;;;;;;;;;;21.70;60.50;;;;;;5096664;28;19920;-71
2023/10/06 05:02:43;;;;;;;;;;;21.80;60.40;;;;;;5114726;28;19969;-71
2023/10/06 05:05:10;;;;;;;;;;;21.80;60.20;;;;;;5114506;28;20044;-71
2023/10/06 05:07:37;;;;;;;;;;;21.80;60.10;;;;;;5114624;28;20397;-71
2023/10/06 05:10:03;;;;;;;;;;;21.80;60.00;;;;;;5096542;28;19927;-71
2023/10/06 05:12:32;;;;;;;;;;;21.90;60.00;;;;;;5096309;28;20018;-71
2023/10/06 05:14:57;;;;;;;;;;;21.80;60.00;;;;;;5096442;28;19927;-71
2023/10/06 05:17:23;;;;;;;;;;;21.80;60.00;;;;;;5096281;28;19923;-71
2023/10/06 05:19:48;;;;;;;;;;;21.80;59.90;;;;;;5095365;28;19923;-71
2023/10/06 05:22:14;;;;;;;;;;;21.80;60.60;;;;;;5130412;27;19920;-71
2023/10/06 05:24:40;;;;;;;;;;;21.80;59.80;;;;;;5095948;28;19930;-71
2023/10/06 05:27:05;;;;;;;;;;;21.80;59.80;;;;;;5096141;28;19924;-71
2023/10/06 05:29:35;;;;;;;;;;;21.80;59.80;;;;;;5120186;27;19926;-72
2023/10/06 05:32:02;;;;;;;;;;;21.80;59.90;;;;;;5093924;28;20006;-72
2023/10/06 05:34:29;;;;;;;;;;;21.70;59.80;;;;;;5093459;28;20397;-73
2023/10/06 05:36:55;;;;;;;;;;;21.60;59.90;;;;;;5094503;28;19976;-71
2023/10/06 05:39:21;;;;;;;;;;;21.50;60.10;;;;;;5112300;28;20340;-74
2023/10/06 05:41:47;;;;;;;;;;;21.40;60.30;;;;;;5094397;28;19920;-69
2023/10/06 05:44:13;;;;;;;;;;;21.30;60.40;;;;;;5094987;28;20129;-72
2023/10/06 05:46:41;;;;;;;;;;;21.20;60.60;;;;;;5094519;28;20422;-69
2023/10/06 05:49:08;;;;;;;;;;;21.20;60.70;;;;;;5095411;28;19946;-68
2023/10/06 05:51:38;;;;;;;;;;;21.10;60.70;;;;;;5095288;28;20389;-74
2023/10/06 05:54:09;;;;;;;;;;;21.10;60.90;;;;;;5093990;28;20385;-71
2023/10/06 05:56:37;;;;;;;;;;;21.10;61.00;;;;;;5092791;28;20075;-69
2023/10/06 05:59:05;;;;;;;;;;;21.20;61.00;;;;;;5110459;28;19928;-68
2023/10/06 06:01:34;;;;;;;;;;;21.30;60.90;;;;;;5090862;28;19920;-68
2023/10/06 06:04:08;;;;;;;;;;;21.30;60.70;;;;;;5091276;28;20020;-70
2023/10/06 06:06:36;;;;;;;;;;;21.40;60.60;;;;;;5089805;28;19927;-73
2023/10/06 06:09:02;;;;;;;;;;;21.40;60.40;;;;;;5092504;28;19919;-70
2023/10/06 06:11:28;;;;;;;;;;;21.50;60.30;;;;;;5091009;28;19989;-69
2023/10/06 06:13:57;;;;;;;;;;;21.50;60.20;;;;;;5089666;28;19919;-70
2023/10/06 06:16:24;;;;;;;;;;;21.50;60.20;;;;;;5089194;28;19923;-71
2023/10/06 06:18:50;;;;;;;;;;;21.50;60.20;;;;;;5088813;28;19919;-71
2023/10/06 06:21:16;;;;;;;;;;;21.50;60.20;;;;;;5090020;28;20344;-71
2023/10/06 06:23:46;;;;;;;;;;;21.50;60.10;;;;;;5089279;28;19923;-73
2023/10/06 06:26:11;;;;;;;;;;;21.50;60.00;;;;;;5090680;28;19969;-73
2023/10/06 06:28:39;;;;;;;;;;;21.50;60.00;;;;;;5108357;28;19920;-72
2023/10/06 06:31:06;;;;;;;;;;;21.50;59.90;;;;;;5088320;28;19959;-71
2023/10/06 06:33:32;;;;;;;;;;;21.50;59.90;;;;;;5088117;28;19923;-73
2023/10/06 06:35:58;;;;;;;;;;;21.60;59.90;;;;;;5075257;28;20517;-72
2023/10/06 06:38:25;;;;;;;;;;;21.50;59.90;;;;;;5073394;28;19924;-71
2023/10/06 06:40:50;;;;;;;;;;;21.50;59.90;;;;;;5078840;28;19941;-70
2023/10/06 06:43:19;;;;;;;;;;;21.50;60.00;;;;;;5079498;28;20010;-74
2023/10/06 06:45:45;;;;;;;;;;;21.40;60.10;;;;;;5092694;28;19932;-71
2023/10/06 06:48:16;;;;;;;;;;;21.40;60.20;;;;;;5086092;28;20315;-75
2023/10/06 06:50:42;;;;;;;;;;;21.40;60.30;;;;;;5089504;28;19943;-74
2023/10/06 06:53:08;;;;;;;;;;;21.40;60.30;;;;;;5071734;28;19977;-72
2023/10/06 06:55:34;;;;;;;;;;;21.50;60.30;;;;;;5071795;28;20348;-72
2023/10/06 06:58:05;;;;;;;;;;;21.40;60.20;;;;;;5083502;28;20481;-74
2023/10/06 07:00:30;;;;;;;;;;;21.50;60.20;;;;;;5103557;28;20353;-71
2023/10/06 07:02:56;;;;;;;;;;;21.50;60.20;;;;;;5076914;28;19931;-76
2023/10/06 07:05:22;;;;;;;;;;;21.50;60.20;;;;;;5075182;28;19924;-73
2023/10/06 07:07:50;;;;;;;;;;;21.50;60.20;;;;;;5077043;28;19924;-72
2023/10/06 07:10:20;;;;;;;;;;;21.50;60.10;;;;;;5071847;28;20323;-75
2023/10/06 07:12:45;;;;;;;;;;;21.60;60.10;;;;;;5075648;28;20506;-72
2023/10/06 07:15:14;;;;;;;;;;;21.60;60.10;;;;;;5077197;28;20002;-72
2023/10/06 07:17:45;;;;;;;;;;;21.60;60.10;;;;;;5094587;28;20341;-71
2023/10/06 07:20:14;;;;;;;;;;;21.50;60.10;;;;;;5069961;28;19919;-69
2023/10/06 07:22:40;;;;;;;;;;;21.50;60.20;;;;;;5074662;28;19946;-78
2023/10/06 07:25:07;;;;;;;;;;;21.50;60.30;;;;;;5074893;28;19924;-71
2023/10/06 07:27:34;;;;;;;;;;;21.50;60.30;;;;;;5075117;28;19921;-77
2023/10/06 07:30:04;;;;;;;;;;;21.50;60.30;;;;;;5075635;28;19923;-70
2023/10/06 07:32:30;;;;;;;;;;;21.50;60.30;;;;;;5092449;28;19920;-72
2023/10/06 07:34:56;;;;;;;;;;;21.50;60.50;;;;;;5111066;28;19992;-73
2023/10/06 07:37:21;;;;;;;;;;;21.50;60.50;;;;;;5110783;27;20019;-73
2023/10/06 07:39:49;;;;;;;;;;;21.50;60.50;;;;;;5094006;28;19920;-71
2023/10/06 07:42:16;;;;;;;;;;;21.50;60.50;;;;;;5108451;27;20382;-72
2023/10/06 07:44:42;;;;;;;;;;;21.50;60.60;;;;;;5081886;28;20010;-73
2023/10/06 07:47:08;;;;;;;;;;;21.50;61.30;;;;;;5075220;28;20515;-73
2023/10/06 07:49:34;;;;;;;;;;;21.40;60.80;;;;;;5072695;27;19964;-70
2023/10/06 07:52:00;;;;;;;;;;;21.40;60.90;;;;;;5078773;28;19957;-71
2023/10/06 07:54:26;;;;;;;;;;;21.40;61.00;;;;;;5075383;28;20061;-73
2023/10/06 07:56:52;;;;;;;;;;;21.50;61.00;;;;;;5096008;28;19980;-70
2023/10/06 07:59:17;;;;;;;;;;;21.50;60.90;;;;;;5073857;28;19928;-72
2023/10/06 08:01:43;;;;;;;;;;;21.50;60.90;;;;;;5078404;28;20001;-73
2023/10/06 08:04:09;;;;;;;;;;;21.50;61.00;;;;;;5069830;28;20643;-75
2023/10/06 08:06:34;;;;;;;;;;;21.50;61.00;;;;;;5071385;28;19982;-75
2023/10/06 08:09:00;;;;;;;;;;;21.50;61.10;;;;;;5076434;28;19924;-73
2023/10/06 08:11:25;;;;;;;;;;;21.50;61.10;;;;;;5090979;28;19928;-72
2023/10/06 08:13:52;;;;;;;;;;;21.60;61.20;;;;;;5075142;28;19928;-72
2023/10/06 08:16:18;;;;;;;;;;;21.50;61.40;;;;;;5073802;28;19932;-71
2023/10/06 08:18:45;;;;;;;;;;;21.60;61.20;;;;;;5072264;28;19924;-74
2023/10/06 08:21:11;;;;;;;;;;;21.50;61.30;;;;;;5068963;28;20043;-71
2023/10/06 08:23:36;;;;;;;;;;;21.50;61.40;;;;;;5081978;28;20023;-72
2023/10/06 08:26:07;;;;;;;;;;;21.50;61.50;;;;;;5068992;28;19924;-71
2023/10/06 08:28:33;;;;;;;;;;;21.50;61.70;;;;;;5078547;28;19920;-71
2023/10/06 08:31:00;;;;;;;;;;;21.40;61.90;;;;;;5095980;28;19919;-70
2023/10/06 08:33:27;;;;;;;;;;;21.40;62.70;;;;;;5077896;28;19924;-71
2023/10/06 08:35:55;;;;;;;;;;;21.40;62.10;;;;;;5077496;28;19924;-71
2023/10/06 08:38:20;;;;;;;;;;;21.40;62.20;;;;;;5079114;28;20436;-70
2023/10/06 08:40:46;;;;;;;;;;;21.40;62.20;;;;;;5078761;28;19928;-70
2023/10/06 08:43:14;;;;;;;;;;;21.40;62.20;;;;;;5080094;28;19985;-71
2023/10/06 08:45:41;;;;;;;;;;;21.40;62.10;;;;;;5078286;28;19932;-71
2023/10/06 08:48:09;;;;;;;;;;;21.40;62.20;;;;;;5088349;28;19967;-69
2023/10/06 08:50:35;;;;;;;;;;;21.40;62.20;;;;;;5085582;28;20440;-69
2023/10/06 08:53:01;;;;;;;;;;;21.40;62.30;;;;;;5069497;28;19927;-68
2023/10/06 08:55:27;;;;;;;;;;;21.40;62.40;;;;;;5075876;28;20371;-70
2023/10/06 08:57:53;;;;;;;;;;;21.40;62.40;;;;;;5093060;28;19928;-70
2023/10/06 09:00:22;;;;;;;;;;;21.40;62.40;;;;;;5074676;28;20387;-70
2023/10/06 09:02:48;;;;;;;;;;;21.40;62.40;;;;;;5072002;28;20448;-70
2023/10/06 09:05:14;;;;;;;;;;;21.40;62.40;;;;;;5093772;27;19927;-70
2023/10/06 09:07:59;;;;;;;;;;;21.40;62.50;;;;;;5092069;28;20379;-73
2023/10/06 09:10:26;;;;;;;;;;;21.40;62.70;;;;;;5071672;27;20481;-70
2023/10/06 09:13:01;;;;;;;;;;;21.40;62.70;;;;;;5079001;28;19924;-70
2023/10/06 09:15:26;;;;;;;;;;;21.40;62.70;;;;;;5095709;28;19928;-69
2023/10/06 09:17:53;;;;;;;;;;;21.40;62.80;;;;;;5095957;28;19931;-69
2023/10/06 09:20:28;;;;;;;;;;;21.40;63.00;;;;;;5095452;28;19963;-71
2023/10/06 09:22:54;;;;;;;;;;;21.40;63.10;;;;;;5074470;28;19930;-75
2023/10/06 09:25:21;;;;;;;;;;;21.40;63.30;;;;;;5072735;28;19928;-69
2023/10/06 09:27:48;;;;;;;;;;;21.40;63.40;;;;;;5083179;28;20009;-69
2023/10/06 09:30:20;;;;;;;;;;;21.50;63.50;;;;;;5088543;28;19959;-70
2023/10/06 09:32:46;;;;;;;;;;;21.50;63.50;;;;;;5072723;28;19936;-68
2023/10/06 09:35:19;;;;;;;;;;;21.50;63.60;;;;;;5076448;27;20023;-71
2023/10/06 09:37:45;;;;;;;;;;;21.40;63.60;;;;;;5089216;28;20617;-70
2023/10/06 09:40:20;;;;;;;;;;;21.40;63.60;;;;;;5070222;28;19946;-71
2023/10/06 09:42:47;;;;;;;;;;;21.40;63.60;;;;;;5074594;28;19978;-67
2023/10/06 09:45:15;;;;;;;;;;;21.50;63.70;;;;;;5091571;28;19938;-67
2023/10/06 09:47:50;;;;;;;;;;;21.50;64.40;;;;;;5105690;27;19943;-69
2023/10/06 09:50:20;;;;;;;;;;;21.40;63.70;;;;;;5074104;28;20368;-75
2023/10/06 09:52:47;;;;;;;;;;;21.40;63.80;;;;;;5084268;28;20031;-75
2023/10/06 09:55:19;;;;;;;;;;;21.40;63.90;;;;;;5059706;28;19924;-72
2023/10/06 09:57:47;;;;;;;;;;;21.40;63.90;;;;;;5080924;28;20018;-74
2023/10/06 10:00:16;;;;;;;;;;;21.40;63.90;;;;;;5088954;27;19920;-73
2023/10/06 10:02:44;;;;;;;;;;;21.40;63.90;;;;;;5093341;28;19924;-71
2023/10/06 10:05:11;;;;;;;;;;;21.40;64.00;;;;;;5094695;28;19931;-74
2023/10/06 10:07:40;;;;;;;;;;;21.40;64.00;;;;;;5095942;28;19924;-73
2023/10/06 10:10:06;;;;;;;;;;;21.30;64.00;;;;;;5107045;27;19927;-71
2023/10/06 10:12:52;;;;;;;;;;;21.30;64.20;;;;;;5094114;28;19920;-72
2023/10/06 10:15:26;;;;;;;;;;;21.30;64.20;;;;;;5091505;28;20307;-71
2023/10/06 10:18:01;;;;;;;;;;;21.30;64.30;;;;;;5092289;28;20228;-69
2023/10/06 10:20:26;;;;;;;;;;;21.30;64.40;;;;;;5082450;28;19930;-73
2023/10/06 10:22:55;;;;;;;;;;;21.30;64.60;;;;;;5119421;27;19920;-70
2023/10/06 10:25:23;;;;;;;;;;;21.30;64.60;;;;;;5121238;27;20026;-73
2023/10/06 10:28:08;;;;;;;;;;;21.30;64.60;;;;;;5088019;28;20493;-71
2023/10/06 10:30:50;;;;;;;;;;;21.30;64.70;;;;;;5088070;28;19920;-75
2023/10/06 10:33:19;;;;;;;;;;;21.30;64.80;;;;;;5080310;28;20164;-75
2023/10/06 10:36:05;;;;;;;;;;;21.30;65.00;;;;;;5106698;28;19919;-73
2023/10/06 10:38:32;;;;;;;;;;;21.30;65.00;;;;;;5096020;28;19999;-74
2023/10/06 10:41:01;;;;;;;;;;;21.30;65.00;;;;;;5082009;28;19920;-72
2023/10/06 10:43:27;;;;;;;;;;;21.30;65.00;;;;;;5083727;28;19950;-73
2023/10/06 10:45:54;;;;;;;;;;;21.20;65.00;;;;;;5099357;28;20646;-73
2023/10/06 10:48:21;;;;;;;;;;;21.20;65.20;;;;;;5076516;28;19924;-77
2023/10/06 10:50:55;;;;;;;;;;;21.10;65.40;;;;;;5077548;28;20268;-74
2023/10/06 10:53:21;;;;;;;;;;;21.10;65.40;;;;;;5111785;27;19928;-76
2023/10/06 10:55:47;;;;;;;;;;;21.10;65.60;;;;;;5083104;28;20631;-76
2023/10/06 10:58:33;;;;;;;;;;;21.10;65.80;;;;;;5080619;28;19934;-69
2023/10/06 11:01:18;;;;;;;;;;;21.00;65.80;;;;;;5078838;28;20041;-69
2023/10/06 11:04:04;;;;;;;;;;;21.00;65.90;;;;;;5080399;28;20046;-68
2023/10/06 11:06:29;;;;;;;;;;;21.00;65.60;;;;;;5079487;28;19932;-72
2023/10/06 11:08:55;;;;;;;;;;;20.90;66.00;;;;;;5106346;28;20294;-77
2023/10/06 11:11:20;;;;;;;;;;;20.90;66.00;;;;;;5073067;28;19935;-73
2023/10/06 11:13:57;;;;;;;;;;;20.80;66.10;;;;;;5076155;28;19945;-81
2023/10/06 11:16:23;;;;;;;;;;;20.80;66.20;;;;;;5078337;28;19950;-72
2023/10/06 11:18:49;;;;;;;;;;;20.80;66.40;;;;;;5080587;28;19977;-77
2023/10/06 11:21:31;;;;;;;;;;;20.80;66.50;;;;;;5098839;28;20001;-74
2023/10/06 11:23:58;;;;;;;;;;;20.70;66.60;;;;;;5078138;28;19928;-80
2023/10/06 11:26:27;;;;;;;;;;;20.70;66.70;;;;;;5093353;28;20056;-73
2023/10/06 11:28:52;;;;;;;;;;;20.70;66.80;;;;;;5093539;28;19920;-77
2023/10/06 11:31:18;;;;;;;;;;;20.70;66.90;;;;;;5073187;28;19977;-71
2023/10/06 11:33:44;;;;;;;;;;;20.70;67.00;;;;;;5079520;28;19996;-73
2023/10/06 11:36:11;;;;;;;;;;;20.60;67.00;;;;;;5073648;28;19930;-75
2023/10/06 11:38:37;;;;;;;;;;;20.70;67.10;;;;;;5078207;28;19927;-75
2023/10/06 11:41:02;;;;;;;;;;;20.70;67.20;;;;;;5077148;28;19985;-72
2023/10/06 11:43:30;;;;;;;;;;;20.70;67.20;;;;;;5106262;27;19924;-72
2023/10/06 11:46:01;;;;;;;;;;;20.70;67.20;;;;;;5078018;28;19971;-74
2023/10/06 11:48:28;;;;;;;;;;;20.80;67.20;;;;;;5111283;27;20010;-76
2023/10/06 11:51:12;;;;;;;;;;;20.80;67.00;;;;;;5078152;28;19920;-77
2023/10/06 11:53:39;;;;;;;;;;;20.80;66.90;;;;;;5086654;28;20009;-72
2023/10/06 11:58:45;;;;;;;;;;;20.90;66.70;;;;;;5088033;27;19939;-71
2023/10/06 12:01:36;;;;;;;;;;;20.90;66.60;;;;;;5084933;28;20564;-71
2023/10/06 12:04:04;;;;;;;;;;;21.00;66.60;;;;;;5086955;28;19923;-69
2023/10/06 12:06:36;;;;;;;;;;;21.00;66.60;;;;;;5119820;27;19923;-72
2023/10/06 12:09:02;;;;;;;;;;;21.00;66.40;;;;;;5087783;28;19946;-73
2023/10/06 12:11:28;;;;;;;;;;;21.00;66.40;;;;;;5092770;28;19920;-73
2023/10/06 12:13:53;;;;;;;;;;;21.00;66.30;;;;;;5084047;28;19931;-73
2023/10/06 12:16:19;;;;;;;;;;;21.00;66.30;;;;;;5089806;28;19951;-73
2023/10/06 12:18:46;;;;;;;;;;;21.10;66.30;;;;;;5082850;28;19924;-71
2023/10/06 12:21:13;;;;;;;;;;;21.00;66.20;;;;;;5087699;28;19978;-72
2023/10/06 12:23:43;;;;;;;;;;;21.00;66.20;;;;;;5091171;28;19921;-70
2023/10/06 12:26:08;;;;;;;;;;;21.00;66.10;;;;;;5089907;28;19973;-71
2023/10/06 12:28:34;;;;;;;;;;;21.10;66.20;;;;;;5086774;28;19929;-72
2023/10/06 12:31:02;;;;;;;;;;;21.10;66.20;;;;;;5082219;28;19920;-70
2023/10/06 12:33:28;;;;;;;;;;;21.00;66.10;;;;;;5079451;28;20355;-71
2023/10/06 12:35:53;;;;;;;;;;;21.10;66.10;;;;;;5074797;28;20026;-71
2023/10/06 12:38:19;;;;;;;;;;;21.10;66.10;;;;;;5087783;28;19990;-67
2023/10/06 12:40:46;;;;;;;;;;;21.00;66.10;;;;;;5086562;28;19926;-71
2023/10/06 12:43:13;;;;;;;;;;;21.00;66.10;;;;;;5086203;28;19920;-71
2023/10/06 12:45:39;;;;;;;;;;;21.00;66.20;;;;;;5089748;28;19924;-71
2023/10/06 12:48:05;;;;;;;;;;;21.00;66.20;;;;;;5081911;28;20494;-71
2023/10/06 12:50:30;;;;;;;;;;;21.00;66.20;;;;;;5081076;28;19924;-70
2023/10/06 12:52:56;;;;;;;;;;;21.00;66.30;;;;;;5078090;28;19924;-74
2023/10/06 12:55:24;;;;;;;;;;;21.00;66.30;;;;;;5082498;28;19960;-75
2023/10/06 12:57:50;;;;;;;;;;;21.00;66.30;;;;;;5087084;28;20141;-72
2023/10/06 13:00:16;;;;;;;;;;;21.00;66.30;;;;;;5082948;28;20007;-72
2023/10/06 13:02:41;;;;;;;;;;;21.00;67.00;;;;;;5075952;28;19932;-72
2023/10/06 13:05:09;;;;;;;;;;;20.90;66.40;;;;;;5079178;28;20446;-73
2023/10/06 13:07:36;;;;;;;;;;;20.90;66.40;;;;;;5098277;28;19993;-72
2023/10/06 13:10:06;;;;;;;;;;;20.90;66.40;;;;;;5068629;28;20400;-75
2023/10/06 13:12:32;;;;;;;;;;;20.90;66.50;;;;;;5069810;28;20439;-72
2023/10/06 13:15:00;;;;;;;;;;;20.90;66.60;;;;;;5067617;28;20232;-70
2023/10/06 13:17:28;;;;;;;;;;;20.90;66.60;;;;;;5068652;28;19928;-70
2023/10/06 13:19:54;;;;;;;;;;;20.90;66.60;;;;;;5069595;28;19925;-71
2023/10/06 13:22:20;;;;;;;;;;;20.90;66.70;;;;;;5069973;28;19921;-72
2023/10/06 13:24:45;;;;;;;;;;;20.90;66.70;;;;;;5070798;28;19931;-72
2023/10/06 13:27:11;;;;;;;;;;;20.80;66.70;;;;;;5069047;28;19920;-70
2023/10/06 13:29:37;;;;;;;;;;;20.90;66.80;;;;;;5052651;28;20000;-73
2023/10/06 13:32:04;;;;;;;;;;;20.90;66.80;;;;;;5068981;28;19927;-72
2023/10/06 13:34:30;;;;;;;;;;;20.90;66.90;;;;;;5069795;28;20477;-71
2023/10/06 13:36:55;;;;;;;;;;;20.80;66.90;;;;;;5075242;28;19925;-71
2023/10/06 13:39:25;;;;;;;;;;;20.90;66.90;;;;;;5070986;28;19920;-71
2023/10/06 13:41:51;;;;;;;;;;;20.80;66.90;;;;;;5068179;28;19921;-72
2023/10/06 13:44:17;;;;;;;;;;;20.80;67.00;;;;;;5072883;28;19932;-72
2023/10/06 13:46:43;;;;;;;;;;;20.80;67.00;;;;;;5070357;28;19920;-72
2023/10/06 13:49:08;;;;;;;;;;;20.80;67.10;;;;;;5071171;28;19921;-73
2023/10/06 13:51:33;;;;;;;;;;;20.80;67.20;;;;;;5071206;28;19920;-72
2023/10/06 13:53:59;;;;;;;;;;;20.80;67.20;;;;;;5105212;28;19920;-72
2023/10/06 13:56:25;;;;;;;;;;;20.70;67.20;;;;;;5073200;28;19928;-71
2023/10/06 13:58:50;;;;;;;;;;;20.70;67.20;;;;;;5090554;28;19924;-72
2023/10/06 14:01:17;;;;;;;;;;;20.70;67.20;;;;;;5088780;28;19931;-72
2023/10/06 14:03:43;;;;;;;;;;;20.70;67.30;;;;;;5102075;28;19920;-72
2023/10/06 14:06:08;;;;;;;;;;;20.70;67.40;;;;;;5072449;28;19973;-72
2023/10/06 14:08:33;;;;;;;;;;;20.70;67.40;;;;;;5084940;28;19920;-72
2023/10/06 14:11:00;;;;;;;;;;;20.70;67.50;;;;;;5090759;28;20551;-72
2023/10/06 14:13:27;;;;;;;;;;;20.70;67.50;;;;;;5073702;28;19926;-71
2023/10/06 14:16:09;;;;;;;;;;;20.60;67.60;;;;;;5071954;28;19960;-71
2023/10/06 14:18:36;;;;;;;;;;;20.60;67.60;;;;;;5091267;28;19928;-71
2023/10/06 14:21:05;;;;;;;;;;;20.60;67.70;;;;;;5071981;28;20383;-70
2023/10/06 14:23:32;;;;;;;;;;;20.60;67.80;;;;;;5107080;28;19920;-71
2023/10/06 14:26:00;;;;;;;;;;;20.60;67.80;;;;;;5090708;28;19920;-72